Time;durP1;ratioP1;P1;durP2;ratioP2;P2;SDS_P1;SDS_P2;PMS_P1;PMS_P2;Temp;Humidity;BMP_temperature;BMP_pressure;BME280_temperature;BME280_humidity;BME280_pressure;Samples;Min_cycle;Max_cycle;Signal;HPM_P1;HPM_P2
2021/05/21 00:00:34;;;;;;;;;;;;;;;10.77;91.21;98934.97;3456030;28;20422;-50
2021/05/21 00:02:16;;;;;;;;;;;;;;;10.73;90.88;98934.09;3456109;28;19991;-49
2021/05/21 00:03:57;;;;;;;;;;;;;;;10.71;90.92;98937.56;3456265;28;19929;-50
2021/05/21 00:05:39;;;;;;;;;;;;;;;10.70;90.67;98939.28;3455598;28;19976;-50
2021/05/21 00:07:20;;;;;;;;;;;;;;;10.68;90.46;98941.00;3455364;28;19968;-49
2021/05/21 00:09:01;;;;;;;;;;;;;;;10.67;90.42;98942.75;3455370;28;19929;-43
2021/05/21 00:10:43;;;;;;;;;;;;;;;10.67;90.32;98945.34;3456193;28;19930;-43
2021/05/21 00:12:24;;;;;;;;;;;;;;;10.66;89.98;98943.59;3454326;28;19929;-43
2021/05/21 00:14:05;;;;;;;;;;;;;;;10.67;89.40;98942.75;3454330;28;19937;-43
2021/05/21 00:15:47;;;;;;;;;;;;;;;10.68;89.20;98943.59;3455068;28;20034;-43
2021/05/21 00:17:28;;;;;;;;;;;;;;;10.70;89.13;98938.44;3456701;28;19972;-49
2021/05/21 00:19:09;;;;;;;;;;;;;;;10.71;88.94;98940.16;3455368;28;20426;-48
2021/05/21 00:20:51;;;;;;;;;;;;;;;10.73;88.95;98941.03;3456009;28;19968;-48
2021/05/21 00:22:32;;;;;;;;;;;;;;;10.73;88.40;98954.00;3455979;28;19936;-50
2021/05/21 00:24:13;;;;;;;;;;;;;;;10.75;88.06;98950.53;3456220;28;19929;-48
2021/05/21 00:25:54;;;;;;;;;;;;;;;10.76;87.84;98954.88;3455546;28;19975;-49
2021/05/21 00:27:35;;;;;;;;;;;;;;;10.79;88.17;98956.59;3454567;28;19929;-49
2021/05/21 00:29:16;;;;;;;;;;;;;;;10.79;88.10;98954.84;3454914;28;20440;-49
2021/05/21 00:30:58;;;;;;;;;;;;;;;10.80;87.84;98951.41;3455314;28;19968;-49
2021/05/21 00:32:39;;;;;;;;;;;;;;;10.81;87.62;98962.63;3454626;28;19972;-48
2021/05/21 00:34:20;;;;;;;;;;;;;;;10.81;87.21;98957.44;3455271;28;19936;-49
2021/05/21 00:36:02;;;;;;;;;;;;;;;10.82;86.71;98954.00;3454374;28;20338;-48
2021/05/21 00:37:43;;;;;;;;;;;;;;;10.83;86.44;98959.22;3456033;28;19976;-43
2021/05/21 00:39:24;;;;;;;;;;;;;;;10.85;86.43;98964.41;3454238;28;19964;-43
2021/05/21 00:41:05;;;;;;;;;;;;;;;10.83;85.71;98964.41;3456155;28;20302;-43
2021/05/21 00:42:46;;;;;;;;;;;;;;;10.84;85.07;98957.47;3455182;28;19929;-50
2021/05/21 00:44:27;;;;;;;;;;;;;;;10.84;84.81;98960.91;3456154;28;20453;-43
2021/05/21 00:46:09;;;;;;;;;;;;;;;10.85;84.90;98964.41;3455001;28;20023;-43
2021/05/21 00:47:50;;;;;;;;;;;;;;;10.85;84.62;98970.44;3455799;28;20412;-43
2021/05/21 00:49:31;;;;;;;;;;;;;;;10.86;84.70;98968.69;3455361;28;19965;-43
2021/05/21 00:51:12;;;;;;;;;;;;;;;10.86;84.68;98971.31;3455892;28;19965;-43
2021/05/21 00:52:54;;;;;;;;;;;;;;;10.85;84.96;98967.00;3455097;28;19930;-43
2021/05/21 00:54:36;;;;;;;;;;;;;;;10.85;84.64;98973.03;3454303;28;19930;-43
2021/05/21 00:56:17;;;;;;;;;;;;;;;10.84;84.23;98968.69;3455536;28;19973;-43
2021/05/21 00:57:58;;;;;;;;;;;;;;;10.82;83.87;98972.16;3455535;28;19968;-43
2021/05/21 00:59:39;;;;;;;;;;;;;;;10.80;83.69;98973.91;3454289;28;19953;-48
2021/05/21 01:01:21;;;;;;;;;;;;;;;10.78;84.10;98973.91;3455178;28;20003;-49
2021/05/21 01:03:02;;;;;;;;;;;;;;;10.77;84.23;98971.28;3453104;28;20381;-48
2021/05/21 01:04:44;;;;;;;;;;;;;;;10.75;84.06;98973.03;3456256;28;19929;-48
2021/05/21 01:06:25;;;;;;;;;;;;;;;10.75;84.50;98975.63;3454916;28;19968;-51
2021/05/21 01:08:06;;;;;;;;;;;;;;;10.73;84.50;98980.81;3456031;28;20019;-43
2021/05/21 01:09:47;;;;;;;;;;;;;;;10.71;84.26;98977.34;3455366;28;19930;-49
2021/05/21 01:11:29;;;;;;;;;;;;;;;10.68;84.34;98983.38;3454166;28;19973;-50
2021/05/21 01:13:10;;;;;;;;;;;;;;;10.67;84.29;98978.19;3453739;28;19980;-49
2021/05/21 01:14:52;;;;;;;;;;;;;;;10.66;84.32;98976.47;3454071;28;19987;-49
2021/05/21 01:16:33;;;;;;;;;;;;;;;10.65;84.36;98974.72;3456074;28;19979;-43
2021/05/21 01:18:14;;;;;;;;;;;;;;;10.64;84.51;98978.19;3455105;28;20019;-43
2021/05/21 01:19:56;;;;;;;;;;;;;;;10.62;84.46;98985.13;3454136;28;20019;-43
2021/05/21 01:21:38;;;;;;;;;;;;;;;10.60;85.05;98976.44;3455403;28;19964;-43
2021/05/21 01:23:19;;;;;;;;;;;;;;;10.57;84.93;98976.47;3453775;28;20357;-43
2021/05/21 01:25:01;;;;;;;;;;;;;;;10.53;84.96;98979.88;3455222;28;19929;-43
2021/05/21 01:26:42;;;;;;;;;;;;;;;10.48;85.39;98975.56;3454475;28;20382;-44
2021/05/21 01:28:23;;;;;;;;;;;;;;;10.45;85.29;98978.13;3456553;28;19972;-43
2021/05/21 01:30:05;;;;;;;;;;;;;;;10.42;85.71;98982.44;3457334;28;19937;-48
2021/05/21 01:31:46;;;;;;;;;;;;;;;10.38;85.74;98981.56;3456386;28;20423;-48
2021/05/21 01:33:27;;;;;;;;;;;;;;;10.35;85.42;98978.97;3457343;28;20371;-49
2021/05/21 01:35:08;;;;;;;;;;;;;;;10.32;85.38;98984.16;3456128;28;19995;-48
2021/05/21 01:36:50;;;;;;;;;;;;;;;10.30;85.09;98984.16;3457253;28;20383;-48
2021/05/21 01:38:31;;;;;;;;;;;;;;;10.30;84.58;98988.47;3456849;28;19929;-50
2021/05/21 01:40:13;;;;;;;;;;;;;;;10.28;84.80;98991.06;3458413;28;19937;-49
2021/05/21 01:41:54;;;;;;;;;;;;;;;10.28;85.06;98992.75;3457048;28;19929;-49
2021/05/21 01:43:35;;;;;;;;;;;;;;;10.27;84.69;98988.47;3456522;28;19933;-49
2021/05/21 01:45:17;;;;;;;;;;;;;;;10.27;84.47;98983.28;3456109;28;20083;-48
2021/05/21 01:46:58;;;;;;;;;;;;;;;10.23;84.07;98984.09;3455907;28;19976;-49
2021/05/21 01:48:39;;;;;;;;;;;;;;;10.24;83.63;98996.22;3457593;28;19933;-51
2021/05/21 01:50:20;;;;;;;;;;;;;;;10.24;83.80;98993.63;3457331;28;20433;-48
2021/05/21 01:52:02;;;;;;;;;;;;;;;10.24;83.69;98996.22;3456796;28;19979;-49
2021/05/21 01:53:43;;;;;;;;;;;;;;;10.23;83.48;98997.94;3456626;28;20035;-50
2021/05/21 01:55:25;;;;;;;;;;;;;;;10.21;83.36;98997.09;3457588;28;20391;-43
2021/05/21 01:57:06;;;;;;;;;;;;;;;10.21;83.51;99007.44;3456954;28;20306;-43
2021/05/21 01:58:47;;;;;;;;;;;;;;;10.21;82.98;99014.34;3457528;28;19929;-48
2021/05/21 02:00:28;;;;;;;;;;;;;;;10.22;83.28;99008.31;3457118;28;19972;-49
2021/05/21 02:02:09;;;;;;;;;;;;;;;10.22;83.72;99016.09;3457061;28;20019;-49
2021/05/21 02:03:50;;;;;;;;;;;;;;;10.21;83.67;99015.22;3456431;28;19930;-50
2021/05/21 02:05:32;;;;;;;;;;;;;;;10.20;83.92;99017.81;3456701;28;19930;-49
2021/05/21 02:07:15;;;;;;;;;;;;;;;10.19;83.58;99014.31;3455946;28;19929;-49
2021/05/21 02:08:56;;;;;;;;;;;;;;;10.18;83.50;99011.75;3456851;28;19945;-49
2021/05/21 02:10:37;;;;;;;;;;;;;;;10.16;83.56;99011.75;3457485;28;19929;-48
2021/05/21 02:12:18;;;;;;;;;;;;;;;10.15;83.99;99015.19;3456882;28;19956;-48
2021/05/21 02:14:00;;;;;;;;;;;;;;;10.15;84.19;99022.09;3454265;28;19930;-48
2021/05/21 02:15:41;;;;;;;;;;;;;;;10.13;84.42;99024.69;3456632;28;19952;-43
2021/05/21 02:17:22;;;;;;;;;;;;;;;10.12;84.29;99025.53;3456647;28;20085;-49
2021/05/21 02:19:03;;;;;;;;;;;;;;;10.10;84.35;99022.91;3456055;28;19969;-48
2021/05/21 02:20:44;;;;;;;;;;;;;;;10.09;84.07;99028.13;3456787;28;20375;-49
2021/05/21 02:22:27;;;;;;;;;;;;;;;10.08;84.67;99023.78;3456877;28;19980;-49
2021/05/21 02:24:09;;;;;;;;;;;;;;;10.05;84.83;99032.44;3456944;28;19975;-48
2021/05/21 02:25:50;;;;;;;;;;;;;;;10.03;84.56;99033.25;3455753;28;19976;-49
2021/05/21 02:27:31;;;;;;;;;;;;;;;10.01;84.12;99034.97;3456399;28;19929;-49
2021/05/21 02:29:12;;;;;;;;;;;;;;;9.99;84.43;99034.97;3456250;28;19986;-49
2021/05/21 02:30:53;;;;;;;;;;;;;;;9.98;84.69;99034.94;3457089;28;19929;-48
2021/05/21 02:32:34;;;;;;;;;;;;;;;9.98;84.75;99033.22;3456712;28;20342;-48
2021/05/21 02:34:16;;;;;;;;;;;;;;;9.97;84.50;99028.06;3456843;28;19929;-48
2021/05/21 02:35:57;;;;;;;;;;;;;;;9.97;84.43;99034.09;3457249;28;20018;-49
2021/05/21 02:37:39;;;;;;;;;;;;;;;9.97;84.36;99031.50;3456855;28;20295;-47
2021/05/21 02:39:20;;;;;;;;;;;;;;;9.99;84.19;99032.38;3455551;28;19930;-48
2021/05/21 02:41:01;;;;;;;;;;;;;;;10.01;84.10;99032.38;3455778;28;19977;-48
2021/05/21 02:42:42;;;;;;;;;;;;;;;10.04;84.44;99041.03;3455807;28;19937;-48
2021/05/21 02:44:23;;;;;;;;;;;;;;;10.08;84.49;99031.56;3456250;28;20419;-47
2021/05/21 02:46:04;;;;;;;;;;;;;;;10.10;84.34;99035.03;3455418;28;20025;-48
2021/05/21 02:47:46;;;;;;;;;;;;;;;10.12;84.19;99030.72;3456713;28;20390;-49
2021/05/21 02:49:29;;;;;;;;;;;;;;;10.16;84.19;99031.59;3455681;28;19968;-43
2021/05/21 02:51:10;;;;;;;;;;;;;;;10.20;84.09;99038.53;3456114;28;19929;-43
2021/05/21 02:52:52;;;;;;;;;;;;;;;10.24;83.81;99040.28;3456694;28;19972;-43
2021/05/21 02:54:33;;;;;;;;;;;;;;;10.28;83.70;99039.44;3455381;28;20026;-48
2021/05/21 02:56:14;;;;;;;;;;;;;;;10.32;83.85;99043.78;3456110;28;19941;-48
2021/05/21 02:57:55;;;;;;;;;;;;;;;10.34;83.40;99031.69;3456943;28;20350;-48
2021/05/21 02:59:36;;;;;;;;;;;;;;;10.37;83.39;99031.72;3456567;28;19965;-48
2021/05/21 03:01:17;;;;;;;;;;;;;;;10.43;83.61;99036.91;3456624;28;19963;-49
2021/05/21 03:02:59;;;;;;;;;;;;;;;10.47;83.65;99032.59;3456671;28;20472;-43
2021/05/21 03:04:40;;;;;;;;;;;;;;;10.53;83.76;99045.59;3455416;28;20315;-43
2021/05/21 03:06:21;;;;;;;;;;;;;;;10.58;83.41;99045.59;3456600;28;19984;-44
2021/05/21 03:08:03;;;;;;;;;;;;;;;10.62;83.61;99043.03;3455971;28;20445;-44
2021/05/21 03:09:44;;;;;;;;;;;;;;;10.67;83.38;99046.50;3455684;28;19930;-44
2021/05/21 03:11:25;;;;;;;;;;;;;;;10.74;83.24;99050.00;3456293;28;20027;-43
2021/05/21 03:13:07;;;;;;;;;;;;;;;10.80;83.46;99056.91;3453857;28;19929;-50
2021/05/21 03:14:48;;;;;;;;;;;;;;;10.86;83.53;99056.94;3456354;28;19933;-45
2021/05/21 03:16:29;;;;;;;;;;;;;;;10.90;82.73;99050.91;3455034;28;20303;-43
2021/05/21 03:18:14;;;;;;;;;;;;;;;10.94;82.78;99055.22;3456921;28;22384;-43
2021/05/21 03:19:55;;;;;;;;;;;;;;;10.99;82.78;99057.84;3455844;28;19991;-44
2021/05/21 03:21:36;;;;;;;;;;;;;;;11.02;83.00;99053.53;3456455;28;19937;-44
2021/05/21 03:23:18;;;;;;;;;;;;;;;11.09;82.78;99053.50;3456442;28;19935;-48
2021/05/21 03:25:03;;;;;;;;;;;;;;;11.13;82.08;99052.66;3455045;28;19930;-48
2021/05/21 03:26:44;;;;;;;;;;;;;;;11.19;82.01;99057.88;3456147;28;19972;-48
2021/05/21 03:28:25;;;;;;;;;;;;;;;11.25;82.23;99058.75;3455341;28;20031;-50
2021/05/21 03:30:07;;;;;;;;;;;;;;;11.31;82.37;99062.22;3455451;28;19929;-49
2021/05/21 03:31:48;;;;;;;;;;;;;;;11.36;82.27;99058.78;3455946;28;19987;-50
2021/05/21 03:33:29;;;;;;;;;;;;;;;11.42;82.44;99069.16;3455409;28;19936;-44
2021/05/21 03:35:11;;;;;;;;;;;;;;;11.48;82.03;99068.28;3456075;28;20643;-43
2021/05/21 03:36:52;;;;;;;;;;;;;;;11.54;81.79;99070.91;3455008;28;19973;-49
2021/05/21 03:38:34;;;;;;;;;;;;;;;11.60;81.84;99067.44;3456135;28;20370;-49
2021/05/21 03:40:15;;;;;;;;;;;;;;;11.65;81.98;99068.31;3456183;28;20486;-48
2021/05/21 03:41:56;;;;;;;;;;;;;;;11.70;81.56;99071.75;3455386;28;19937;-49
2021/05/21 03:43:37;;;;;;;;;;;;;;;11.76;81.48;99069.16;3455760;28;19929;-49
2021/05/21 03:45:18;;;;;;;;;;;;;;;11.82;81.30;99071.75;3454697;28;19961;-48
2021/05/21 03:47:02;;;;;;;;;;;;;;;11.87;81.27;99078.66;3456123;28;19929;-50
2021/05/21 03:48:43;;;;;;;;;;;;;;;11.91;80.99;99078.66;3454995;28;20446;-43
2021/05/21 03:50:24;;;;;;;;;;;;;;;11.96;80.55;99076.94;3455027;28;19930;-50
2021/05/21 03:52:05;;;;;;;;;;;;;;;12.00;80.55;99080.41;3454560;28;19991;-49
2021/05/21 03:53:47;;;;;;;;;;;;;;;12.04;80.30;99087.31;3455550;28;20473;-48
2021/05/21 03:55:29;;;;;;;;;;;;;;;12.08;79.97;99081.25;3455929;28;19934;-44
2021/05/21 03:57:10;;;;;;;;;;;;;;;12.13;80.02;99083.81;3455255;28;19994;-48
2021/05/21 03:58:51;;;;;;;;;;;;;;;12.15;79.42;99082.97;3455885;28;19929;-48
2021/05/21 04:00:32;;;;;;;;;;;;;;;12.19;79.16;99083.84;3455019;28;19933;-48
2021/05/21 04:02:14;;;;;;;;;;;;;;;12.23;79.08;99088.16;3456125;28;20378;-49
2021/05/21 04:03:56;;;;;;;;;;;;;;;12.27;79.38;99089.84;3454885;28;19930;-47
2021/05/21 04:05:37;;;;;;;;;;;;;;;12.31;79.04;99093.31;3456027;28;20027;-43
2021/05/21 04:07:18;;;;;;;;;;;;;;;12.35;78.69;99098.50;3455447;28;19936;-44
2021/05/21 04:09:05;;;;;;;;;;;;;;;12.40;78.42;99101.13;3454492;28;20391;-43
2021/05/21 04:10:46;;;;;;;;;;;;;;;12.43;78.62;99093.28;3456306;28;19952;-49
2021/05/21 04:12:28;;;;;;;;;;;;;;;12.46;78.09;99090.69;3455634;28;19929;-48
2021/05/21 04:14:10;;;;;;;;;;;;;;;12.51;78.08;99099.34;3454814;28;19971;-48
2021/05/21 04:15:51;;;;;;;;;;;;;;;12.57;78.22;99095.84;3455264;28;19937;-47
2021/05/21 04:17:32;;;;;;;;;;;;;;;12.64;77.78;99097.53;3456294;28;19936;-48
2021/05/21 04:19:13;;;;;;;;;;;;;;;12.71;77.63;99098.38;3455303;28;19937;-48
2021/05/21 04:20:54;;;;;;;;;;;;;;;12.77;76.85;99094.03;3454561;28;20438;-47
2021/05/21 04:22:35;;;;;;;;;;;;;;;12.87;77.05;99093.97;3456159;28;19936;-48
2021/05/21 04:24:17;;;;;;;;;;;;;;;12.93;76.98;99099.22;3454398;28;20505;-48
2021/05/21 04:25:58;;;;;;;;;;;;;;;12.99;76.64;99095.69;3455715;28;19975;-48
2021/05/21 04:27:39;;;;;;;;;;;;;;;13.05;76.95;99095.66;3455919;28;19975;-48
2021/05/21 04:29:21;;;;;;;;;;;;;;;13.12;76.93;99103.44;3456446;28;19977;-44
2021/05/21 04:31:02;;;;;;;;;;;;;;;13.20;76.76;99105.97;3454205;28;19929;-44
2021/05/21 04:32:43;;;;;;;;;;;;;;;13.23;75.43;99103.38;3455863;28;19930;-44
2021/05/21 04:34:24;;;;;;;;;;;;;;;13.24;75.27;99109.44;3455265;28;20288;-43
2021/05/21 04:36:06;;;;;;;;;;;;;;;13.24;75.87;99106.81;3455376;28;20455;-43
2021/05/21 04:37:47;;;;;;;;;;;;;;;13.27;76.21;99107.66;3455908;28;19958;-48
2021/05/21 04:39:29;;;;;;;;;;;;;;;13.32;75.95;99107.66;3455693;28;19930;-48
2021/05/21 04:41:10;;;;;;;;;;;;;;;13.36;75.83;99114.56;3454758;28;20000;-47
2021/05/21 04:42:51;;;;;;;;;;;;;;;13.39;74.96;99124.97;3454759;28;20371;-48
2021/05/21 04:44:33;;;;;;;;;;;;;;;13.44;75.62;99118.00;3454477;28;20366;-48
2021/05/21 04:46:14;;;;;;;;;;;;;;;13.46;74.52;99116.25;3454974;28;20406;-48
2021/05/21 04:47:56;;;;;;;;;;;;;;;13.52;75.22;99121.38;3454159;28;20391;-48
2021/05/21 04:49:37;;;;;;;;;;;;;;;13.57;74.66;99128.34;3455514;28;19965;-47
2021/05/21 04:51:18;;;;;;;;;;;;;;;13.62;75.09;99124.81;3454492;28;20000;-45
2021/05/21 04:52:59;;;;;;;;;;;;;;;13.65;73.95;99126.50;3454925;28;19936;-48
2021/05/21 04:54:41;;;;;;;;;;;;;;;13.66;73.63;99128.25;3455160;28;19929;-44
2021/05/21 04:56:22;;;;;;;;;;;;;;;13.69;74.31;99131.69;3454419;28;19934;-45
2021/05/21 04:58:03;;;;;;;;;;;;;;;13.74;74.88;99130.78;3455127;28;19976;-45
2021/05/21 04:59:45;;;;;;;;;;;;;;;13.77;74.99;99136.84;3454303;28;19929;-44
2021/05/21 05:01:26;;;;;;;;;;;;;;;13.83;74.11;99142.03;3455796;28;20019;-44
2021/05/21 05:03:08;;;;;;;;;;;;;;;13.87;74.55;99142.88;3456589;28;20314;-51
2021/05/21 05:04:49;;;;;;;;;;;;;;;13.88;73.46;99144.56;3457224;28;19934;-52
2021/05/21 05:06:30;;;;;;;;;;;;;;;13.89;73.68;99147.19;3457119;28;19972;-49
2021/05/21 05:08:11;;;;;;;;;;;;;;;13.89;73.92;99154.13;3456323;28;20178;-47
2021/05/21 05:09:56;;;;;;;;;;;;;;;13.89;73.61;99141.97;3457874;28;20425;-45
2021/05/21 05:11:40;;;;;;;;;;;;;;;13.92;74.75;99148.91;3456771;28;19984;-44
2021/05/21 05:13:21;;;;;;;;;;;;;;;14.00;74.48;99148.84;3456444;28;19980;-49
2021/05/21 05:15:02;;;;;;;;;;;;;;;14.08;73.69;99150.50;3456809;28;19929;-48
2021/05/21 05:16:43;;;;;;;;;;;;;;;14.20;74.24;99157.34;3457192;28;19936;-49
2021/05/21 05:18:25;;;;;;;;;;;;;;;14.35;74.26;99150.28;3456896;28;19979;-49
2021/05/21 05:20:06;;;;;;;;;;;;;;;14.49;72.95;99148.41;3456505;28;19969;-48
2021/05/21 05:21:48;;;;;;;;;;;;;;;14.63;72.42;99150.84;3457509;28;19930;-47
2021/05/21 05:23:29;;;;;;;;;;;;;;;14.74;71.21;99153.34;3456421;28;19933;-49
2021/05/21 05:25:12;;;;;;;;;;;;;;;14.85;70.83;99154.06;3457754;28;20010;-45
2021/05/21 05:26:53;;;;;;;;;;;;;;;14.94;69.92;99151.38;3457910;28;20424;-45
2021/05/21 05:28:34;;;;;;;;;;;;;;;15.06;69.81;99150.31;3458549;28;20101;-44
2021/05/21 05:30:15;;;;;;;;;;;;;;;15.21;70.36;99149.28;3457094;28;19936;-44
2021/05/21 05:31:57;;;;;;;;;;;;;;;15.37;69.35;99152.53;3457669;28;19930;-44
2021/05/21 05:33:56;;;;;;;;;;;;;;;15.44;66.46;99150.72;3444226;28;19960;-48
2021/05/21 05:35:37;;;;;;;;;;;;;;;15.54;67.21;99155.78;3453312;28;20314;-49
2021/05/21 05:37:18;;;;;;;;;;;;;;;15.62;64.12;99153.06;3457352;28;19988;-48
2021/05/21 05:39:01;;;;;;;;;;;;;;;15.72;65.88;99149.44;3457598;28;19930;-44
2021/05/21 05:40:43;;;;;;;;;;;;;;;15.86;66.26;99154.44;3456866;28;19929;-46
2021/05/21 05:42:24;;;;;;;;;;;;;;;15.98;65.70;99153.34;3457445;28;19972;-47
2021/05/21 05:44:06;;;;;;;;;;;;;;;16.13;64.58;99162.72;3456350;28;19960;-48
2021/05/21 05:45:47;;;;;;;;;;;;;;;16.23;64.10;99159.06;3457351;28;19933;-48
2021/05/21 05:47:28;;;;;;;;;;;;;;;16.30;64.08;99154.56;3456046;28;19998;-49
2021/05/21 05:49:09;;;;;;;;;;;;;;;16.28;60.82;99151.09;3456819;28;19930;-52
2021/05/21 05:50:51;;;;;;;;;;;;;;;16.26;63.52;99158.13;3456441;28;20414;-50
2021/05/21 05:52:32;;;;;;;;;;;;;;;16.33;64.13;99151.88;3457806;28;19983;-49
2021/05/21 05:54:13;;;;;;;;;;;;;;;16.41;62.65;99154.38;3456872;28;19973;-48
2021/05/21 05:55:55;;;;;;;;;;;;;;;16.50;62.22;99155.06;3456265;28;19929;-48
2021/05/21 05:57:36;;;;;;;;;;;;;;;16.57;60.57;99154.97;3457634;28;20488;-45
2021/05/21 05:59:18;;;;;;;;;;;;;;;16.62;61.90;99153.97;3456804;28;19929;-47
2021/05/21 06:01:01;;;;;;;;;;;;;;;16.65;60.37;99158.28;3457419;28;19937;-44
2021/05/21 06:02:42;;;;;;;;;;;;;;;16.76;61.78;99151.13;3455661;28;19937;-45
2021/05/21 06:04:23;;;;;;;;;;;;;;;16.81;61.21;99154.53;3457616;28;20041;-45
2021/05/21 06:06:04;;;;;;;;;;;;;;;16.89;60.74;99149.13;3456618;28;19936;-45
2021/05/21 06:08:08;;;;;;;;;;;;;;;16.92;60.49;99151.69;3455885;28;20318;-47
2021/05/21 06:09:49;;;;;;;;;;;;;;;16.96;59.32;99145.47;3457337;28;19969;-45
2021/05/21 06:11:30;;;;;;;;;;;;;;;16.98;58.77;99150.69;3457577;28;19956;-45
2021/05/21 06:13:12;;;;;;;;;;;;;;;17.03;62.04;99154.06;3453744;28;19929;-47
2021/05/21 06:14:53;;;;;;;;;;;;;;;17.13;60.75;99147.75;3456701;28;19958;-46
2021/05/21 06:16:34;;;;;;;;;;;;;;;17.26;60.29;99143.94;3455907;28;20018;-45
2021/05/21 06:18:16;;;;;;;;;;;;;;;17.33;59.43;99139.44;3456772;28;20047;-46
2021/05/21 06:19:57;;;;;;;;;;;;;;;17.44;60.39;99145.28;3455657;28;20303;-46
2021/05/21 06:21:38;;;;;;;;;;;;;;;17.57;61.45;99148.50;3456975;28;19940;-45
2021/05/21 06:23:20;;;;;;;;;;;;;;;17.65;56.40;99150.94;3455545;28;20284;-46
2021/05/21 06:25:06;;;;;;;;;;;;;;;17.71;58.91;99153.41;3457716;28;19929;-44
2021/05/21 06:28:44;;;;;;;;;;;;;;;17.73;56.37;99146.38;3456499;28;19929;-46
2021/05/21 06:30:26;;;;;;;;;;;;;;;17.69;55.61;99152.59;3456987;28;19991;-46
2021/05/21 06:32:08;;;;;;;;;;;;;;;17.65;55.09;99150.94;3457283;28;19937;-47
2021/05/21 06:33:49;;;;;;;;;;;;;;;17.67;56.91;99157.88;3456233;28;19980;-46
2021/05/21 06:35:34;;;;;;;;;;;;;;;17.71;56.41;99160.44;3456613;28;19965;-47
2021/05/21 06:37:16;;;;;;;;;;;;;;;17.77;58.22;99165.53;3455594;28;20403;-46
2021/05/21 06:39:08;;;;;;;;;;;;;;;17.70;57.54;99151.69;3443773;28;19930;-48
2021/05/21 06:40:49;;;;;;;;;;;;;;;17.77;58.08;99155.03;3452426;28;19991;-49
2021/05/21 06:42:31;;;;;;;;;;;;;;;17.90;56.15;99158.25;3456853;28;19977;-48
2021/05/21 06:44:15;;;;;;;;;;;;;;;18.03;56.23;99163.19;3455118;28;20028;-48
2021/05/21 06:45:56;;;;;;;;;;;;;;;18.17;55.99;99161.94;3455901;28;19973;-47
2021/05/21 06:47:37;;;;;;;;;;;;;;;18.34;56.40;99170.25;3455561;28;19929;-46
2021/05/21 06:49:18;;;;;;;;;;;;;;;18.43;53.13;99170.00;3455780;28;20395;-48
2021/05/21 06:51:00;;;;;;;;;;;;;;;18.42;52.90;99168.31;3457394;28;19944;-47
2021/05/21 06:52:41;;;;;;;;;;;;;;;18.37;53.05;99171.97;3457048;28;19929;-46
2021/05/21 06:54:23;;;;;;;;;;;;;;;18.36;53.51;99171.06;3455981;28;20334;-45
2021/05/21 06:56:04;;;;;;;;;;;;;;;18.45;55.22;99172.59;3456247;28;19936;-45
2021/05/21 06:57:46;;;;;;;;;;;;;;;18.30;52.42;99167.78;3455567;28;19933;-46
2021/05/21 06:59:27;;;;;;;;;;;;;;;18.14;53.42;99175.19;3456547;28;20030;-45
2021/05/21 07:01:08;;;;;;;;;;;;;;;18.03;54.53;99171.06;3455314;28;19933;-48
2021/05/21 07:02:49;;;;;;;;;;;;;;;18.10;55.66;99174.38;3456639;28;19941;-48
2021/05/21 07:04:30;;;;;;;;;;;;;;;18.21;56.86;99176.75;3455823;28;19940;-47
2021/05/21 07:06:12;;;;;;;;;;;;;;;18.34;57.02;99174.66;3456300;28;19929;-48
2021/05/21 07:07:53;;;;;;;;;;;;;;;18.46;56.57;99178.72;3456295;28;19936;-49
2021/05/21 07:09:34;;;;;;;;;;;;;;;18.53;55.72;99169.78;3455774;28;19976;-47
2021/05/21 07:11:15;;;;;;;;;;;;;;;18.57;54.83;99169.63;3456459;28;19929;-48
2021/05/21 07:13:05;;;;;;;;;;;;;;;18.54;54.67;99168.88;3455349;28;19969;-46
2021/05/21 07:14:47;;;;;;;;;;;;;;;18.46;54.66;99171.72;3443323;28;19929;-48
2021/05/21 07:16:28;;;;;;;;;;;;;;;18.28;53.11;99172.16;3455941;28;19936;-47
2021/05/21 07:18:10;;;;;;;;;;;;;;;18.10;53.08;99178.75;3455945;28;19934;-47
2021/05/21 07:19:51;;;;;;;;;;;;;;;17.90;55.28;99177.47;3455741;28;19980;-46
2021/05/21 07:21:32;;;;;;;;;;;;;;;17.80;53.99;99182.06;3456231;28;19949;-46
2021/05/21 07:23:15;;;;;;;;;;;;;;;17.76;54.83;99184.78;3455609;28;19936;-46
2021/05/21 07:24:56;;;;;;;;;;;;;;;17.78;55.42;99186.50;3454898;28;19929;-46
2021/05/21 07:26:37;;;;;;;;;;;;;;;17.74;54.88;99191.84;3456120;28;19936;-46
2021/05/21 07:28:19;;;;;;;;;;;;;;;17.59;53.79;99185.16;3455405;28;19957;-46
2021/05/21 07:30:00;;;;;;;;;;;;;;;17.38;53.50;99189.16;3455649;28;20007;-47
2021/05/21 07:31:42;;;;;;;;;;;;;;;17.20;52.75;99190.38;3455986;28;19999;-46
2021/05/21 07:33:23;;;;;;;;;;;;;;;17.04;55.46;99195.09;3455723;28;19977;-46
2021/05/21 07:35:06;;;;;;;;;;;;;;;17.08;56.04;99197.63;3456314;28;20035;-46
2021/05/21 07:36:47;;;;;;;;;;;;;;;17.12;54.52;99190.56;3455144;28;19981;-46
2021/05/21 07:38:28;;;;;;;;;;;;;;;17.16;56.62;99186.97;3455629;28;20391;-45
2021/05/21 07:40:10;;;;;;;;;;;;;;;17.30;56.64;99187.53;3455654;28;20020;-47
2021/05/21 07:41:54;;;;;;;;;;;;;;;17.55;56.75;99194.00;3456767;28;19929;-46
2021/05/21 07:43:35;;;;;;;;;;;;;;;17.74;54.83;99189.22;3456024;28;19968;-46
2021/05/21 07:45:17;;;;;;;;;;;;;;;17.79;54.97;99190.84;3455006;28;19945;-46
2021/05/21 07:46:58;;;;;;;;;;;;;;;17.88;54.80;99200.28;3455962;28;20019;-46
2021/05/21 07:48:39;;;;;;;;;;;;;;;18.03;52.67;99196.44;3456306;28;20184;-45
2021/05/21 07:50:20;;;;;;;;;;;;;;;18.20;54.75;99199.50;3456034;28;19937;-46
2021/05/21 07:52:01;;;;;;;;;;;;;;;18.29;50.67;99200.16;3455683;28;19969;-48
2021/05/21 07:53:42;;;;;;;;;;;;;;;18.22;52.21;99197.72;3456236;28;19960;-47
2021/05/21 07:55:24;;;;;;;;;;;;;;;18.19;52.04;99200.41;3455830;28;20029;-49
2021/05/21 07:57:05;;;;;;;;;;;;;;;18.10;50.67;99195.38;3454997;28;19995;-46
2021/05/21 07:58:47;;;;;;;;;;;;;;;18.00;51.88;99191.25;3456140;28;19937;-47
2021/05/21 08:00:28;;;;;;;;;;;;;;;17.90;52.32;99190.59;3455227;28;20007;-46
2021/05/21 08:02:11;;;;;;;;;;;;;;;17.85;52.46;99195.97;3455872;28;19933;-46
2021/05/21 08:03:52;;;;;;;;;;;;;;;17.97;54.72;99199.19;3457576;28;19933;-47
2021/05/21 08:05:33;;;;;;;;;;;;;;;18.19;54.51;99196.94;3457330;28;19971;-48
2021/05/21 08:07:34;;;;;;;;;;;;;;;18.55;54.99;99200.34;3455709;28;19936;-48
2021/05/21 08:09:17;;;;;;;;;;;;;;;18.81;52.23;99199.66;3455082;28;19972;-46
2021/05/21 08:11:00;;;;;;;;;;;;;;;19.03;51.45;99193.81;3455834;28;20390;-48
2021/05/21 08:12:41;;;;;;;;;;;;;;;19.17;51.93;99204.78;3455285;28;20427;-46
2021/05/21 08:14:23;;;;;;;;;;;;;;;19.04;49.32;99197.34;3454387;28;19960;-46
2021/05/21 08:16:09;;;;;;;;;;;;;;;18.92;50.19;99193.28;3456373;28;20437;-47
2021/05/21 08:17:50;;;;;;;;;;;;;;;18.75;51.08;99194.59;3456608;28;19976;-47
2021/05/21 08:19:32;;;;;;;;;;;;;;;18.80;53.10;99197.06;3456073;28;19936;-46
2021/05/21 08:21:13;;;;;;;;;;;;;;;19.00;51.97;99188.66;3454507;28;19930;-46
2021/05/21 08:22:55;;;;;;;;;;;;;;;19.17;51.54;99196.06;3455969;28;19936;-49
2021/05/21 08:24:36;;;;;;;;;;;;;;;19.38;50.10;99190.16;3456433;28;20462;-46
2021/05/21 08:26:17;;;;;;;;;;;;;;;19.60;50.23;99184.25;3455493;28;19936;-46
2021/05/21 08:27:59;;;;;;;;;;;;;;;19.43;46.20;99186.53;3454541;28;20362;-47
2021/05/21 08:29:40;;;;;;;;;;;;;;;19.38;49.37;99197.19;3455246;28;19973;-49
2021/05/21 08:31:22;;;;;;;;;;;;;;;19.47;50.03;99190.78;3455547;28;20436;-47
2021/05/21 08:33:03;;;;;;;;;;;;;;;19.64;49.71;99187.66;3454784;28;20307;-47
2021/05/21 08:34:44;;;;;;;;;;;;;;;19.84;51.26;99184.41;3456478;28;20305;-48
2021/05/21 08:36:25;;;;;;;;;;;;;;;19.81;49.70;99182.69;3454564;28;19965;-46
2021/05/21 08:38:07;;;;;;;;;;;;;;;19.83;49.99;99198.47;3455394;28;20421;-48
2021/05/21 08:39:48;;;;;;;;;;;;;;;19.94;49.87;99196.38;3455175;28;19979;-48
2021/05/21 08:41:30;;;;;;;;;;;;;;;19.92;48.13;99192.94;3454554;28;19977;-49
2021/05/21 08:43:12;;;;;;;;;;;;;;;19.97;50.23;99188.38;3456253;28;19929;-46
2021/05/21 08:44:54;;;;;;;;;;;;;;;20.11;46.88;99194.06;3454360;28;19980;-46
2021/05/21 08:46:35;;;;;;;;;;;;;;;20.33;47.62;99186.28;3456551;28;19968;-49
2021/05/21 08:48:18;;;;;;;;;;;;;;;20.45;43.37;99182.38;3455899;28;20335;-50
2021/05/21 08:50:01;;;;;;;;;;;;;;;20.47;44.33;99187.59;3454559;28;20414;-51
2021/05/21 08:51:43;;;;;;;;;;;;;;;20.21;42.96;99194.59;3455647;28;19929;-50